Puerto Barrios Airport Puerto Barrios US
ICAO: MGPB
IATA: PBR
Category: Medium
Scheduled Services: Yes

Elevation: 33 ft
TransAlt. 0 ft.

Airport Communications:
TWR:118.4

MGPB Zoom In..

Runways:

(A) RW 12 length 8850 ft width 115 ft
---- / hdg 127

(B) RW 30 length 8850 ft width 115 ft
---- / hdg 307

Location; MGPB
Day. 30 / Time. 22.00 Zulu
* Altimeter: 29.74
* Temperature: 29° c. 84.2°f.
* Wind from: 030° Speed 04 kn.
Dewpoint: 25° c.
Visibility: 10 km or more.
Clouds: Scattered 1800 ft.
Clouds: Overcast 8000 ft.

MGPB 302200Z 03004KT 9999 SCT018 OVC080 29/25 Q1007 A2974


Wind From 030°
Speed 04 kn.

 
 
jpsmedia worldairports.se 2020   terms of use